createdAt,value
2018-02-15T00:01:01.260Z,94.40
2018-02-15T00:03:27.496Z,94.30
2018-02-15T00:05:54.493Z,94.20
2018-02-15T00:08:20.727Z,94.20
2018-02-15T00:10:46.950Z,94.10
2018-02-15T00:13:13.185Z,94.00
2018-02-15T00:15:39.415Z,94.10
2018-02-15T00:18:05.601Z,94.20
2018-02-15T00:20:31.831Z,94.10
2018-02-15T00:22:58.047Z,94.10
2018-02-15T00:25:24.271Z,94.20
2018-02-15T00:27:51.229Z,94.10
2018-02-15T00:30:18.183Z,94.00
2018-02-15T00:32:44.390Z,93.90
2018-02-15T00:35:10.612Z,93.80
2018-02-15T00:37:36.859Z,93.80
2018-02-15T00:40:03.082Z,93.80
2018-02-15T00:42:29.310Z,93.80
2018-02-15T00:44:55.527Z,93.90
2018-02-15T00:47:22.478Z,94.00
2018-02-15T00:49:48.692Z,94.00
2018-02-15T00:52:14.891Z,94.00
2018-02-15T00:54:41.110Z,94.00
2018-02-15T00:57:08.055Z,93.90
2018-02-15T00:59:35.033Z,93.80
2018-02-15T01:02:01.255Z,93.80
2018-02-15T01:04:28.208Z,93.70
2018-02-15T01:06:54.454Z,93.70
2018-02-15T01:09:20.647Z,93.70
2018-02-15T01:11:46.866Z,93.70
2018-02-15T01:14:13.057Z,94.00
2018-02-15T01:16:39.310Z,93.70
2018-02-15T01:19:06.263Z,93.60
2018-02-15T01:21:33.224Z,93.40
2018-02-15T01:23:59.450Z,93.60
2018-02-15T01:26:25.644Z,93.60
2018-02-15T01:28:51.882Z,93.60
2018-02-15T01:31:18.088Z,93.60
2018-02-15T01:33:44.296Z,93.80
2018-02-15T01:36:10.500Z,93.90
2018-02-15T01:38:36.734Z,94.00
2018-02-15T01:41:02.964Z,94.00
2018-02-15T01:43:29.186Z,94.10
2018-02-15T01:45:56.128Z,94.40
2018-02-15T01:48:22.318Z,94.10
2018-02-15T01:50:48.536Z,94.20
2018-02-15T01:53:15.478Z,94.10
2018-02-15T01:55:42.012Z,94.10
2018-02-15T01:58:08.219Z,94.20
2018-02-15T02:00:34.429Z,94.10
2018-02-15T02:03:00.654Z,94.00
2018-02-15T02:05:27.608Z,93.80
2018-02-15T02:07:54.575Z,93.70
2018-02-15T02:10:21.518Z,93.70
2018-02-15T02:12:47.814Z,93.70
2018-02-15T02:15:14.025Z,93.70
2018-02-15T02:17:40.257Z,93.80
2018-02-15T02:20:07.228Z,93.80
2018-02-15T02:22:33.448Z,93.80
2018-02-15T02:25:00.422Z,93.60
2018-02-15T02:27:26.668Z,93.60
2018-02-15T02:29:53.619Z,93.40
2018-02-15T02:32:19.829Z,93.40
2018-02-15T02:34:46.039Z,93.40
2018-02-15T02:37:12.282Z,93.40
2018-02-15T02:39:38.499Z,93.30
2018-02-15T02:42:04.750Z,93.30
2018-02-15T02:44:30.971Z,93.20
2018-02-15T02:46:57.187Z,93.20
2018-02-15T02:49:24.189Z,93.30
2018-02-15T02:51:50.391Z,93.30
2018-02-15T02:54:16.603Z,93.40
2018-02-15T02:56:42.811Z,93.40
2018-02-15T02:59:09.041Z,93.20
2018-02-15T03:01:35.265Z,93.10
2018-02-15T03:04:01.474Z,93.00
2018-02-15T03:06:28.455Z,93.20
2018-02-15T03:08:54.673Z,93.20
2018-02-15T03:11:21.665Z,93.10
2018-02-15T03:13:47.871Z,93.10
2018-02-15T03:16:14.819Z,93.10
2018-02-15T03:18:41.064Z,93.10
2018-02-15T03:21:07.270Z,93.30
2018-02-15T03:23:33.507Z,93.00
2018-02-15T03:25:59.719Z,93.00
2018-02-15T03:28:25.924Z,93.00
2018-02-15T03:30:52.167Z,92.90
2018-02-15T03:33:19.141Z,92.80
2018-02-15T03:35:45.366Z,92.80
2018-02-15T03:38:12.290Z,93.30
2018-02-15T03:40:38.519Z,93.00
2018-02-15T03:43:05.458Z,92.70
2018-02-15T03:45:31.653Z,92.70
2018-02-15T03:47:57.864Z,92.50
2018-02-15T03:50:24.806Z,92.70
2018-02-15T03:52:51.024Z,92.60
2018-02-15T03:55:17.234Z,92.70
2018-02-15T03:57:44.188Z,92.70
2018-02-15T04:00:10.408Z,92.60
2018-02-15T04:02:36.628Z,92.70
2018-02-15T04:05:03.585Z,93.10
2018-02-15T04:07:29.781Z,92.80
2018-02-15T04:09:56.740Z,92.90
2018-02-15T04:12:23.725Z,92.80
2018-02-15T04:14:49.944Z,92.80
2018-02-15T04:17:16.950Z,92.80
2018-02-15T04:19:43.187Z,92.80
2018-02-15T04:22:09.392Z,92.90
2018-02-15T04:24:35.622Z,93.00
2018-02-15T04:27:01.859Z,93.00
2018-02-15T04:29:28.070Z,92.90
2018-02-15T04:31:54.297Z,93.20
2018-02-15T04:34:21.237Z,92.80
2018-02-15T04:36:47.456Z,92.80
2018-02-15T04:39:13.679Z,92.80
2018-02-15T04:41:39.914Z,92.90
2018-02-15T04:44:06.879Z,93.00
2018-02-15T04:46:33.079Z,93.00
2018-02-15T04:48:59.310Z,93.00
2018-02-15T04:51:25.551Z,93.10
2018-02-15T04:53:51.793Z,93.10
2018-02-15T04:56:18.045Z,93.20
2018-02-15T04:58:44.259Z,93.20
2018-02-15T05:01:10.493Z,93.10
2018-02-15T05:03:36.719Z,93.10
2018-02-15T05:06:02.959Z,93.00
2018-02-15T05:08:29.188Z,93.00
2018-02-15T05:10:55.411Z,93.10
2018-02-15T05:13:22.369Z,93.00
2018-02-15T05:15:49.333Z,93.10
2018-02-15T05:18:16.321Z,93.40
2018-02-15T05:20:42.538Z,93.40
2018-02-15T05:23:08.761Z,93.90
2018-02-15T05:25:35.739Z,93.70
2018-02-15T05:28:01.947Z,93.70
2018-02-15T05:30:28.172Z,98.00
2018-02-15T05:32:54.438Z,99.50
2018-02-15T05:35:20.667Z,98.30
2018-02-15T05:37:46.882Z,95.70
2018-02-15T05:40:13.119Z,93.20
2018-02-15T05:42:39.334Z,90.60
2018-02-15T05:45:05.542Z,88.60
2018-02-15T05:47:32.490Z,88.20
2018-02-15T05:49:59.442Z,88.60
2018-02-15T05:52:25.692Z,88.50
2018-02-15T05:54:52.676Z,89.60
2018-02-15T05:57:18.866Z,89.60
2018-02-15T05:59:45.096Z,89.90
2018-02-15T06:02:11.319Z,90.10
2018-02-15T06:04:37.550Z,90.20
2018-02-15T06:07:03.764Z,90.30
2018-02-15T06:09:29.998Z,90.30
2018-02-15T06:11:56.958Z,90.50
2018-02-15T06:14:23.899Z,90.60
2018-02-15T06:16:50.954Z,90.70
2018-02-15T06:19:17.156Z,90.70
2018-02-15T06:21:43.384Z,90.70
2018-02-15T06:24:09.604Z,90.60
2018-02-15T06:26:35.848Z,90.50
2018-02-15T06:29:02.058Z,90.50
2018-02-15T06:31:29.020Z,90.10
2018-02-15T06:34:02.996Z,90.50
2018-02-15T06:36:29.210Z,90.50
2018-02-15T06:38:55.459Z,90.80
2018-02-15T06:41:21.662Z,91.40
2018-02-15T06:43:48.621Z,92.20
2018-02-15T06:46:15.599Z,91.80
2018-02-15T06:48:41.825Z,91.80
2018-02-15T06:51:08.788Z,92.30
2018-02-15T06:53:35.033Z,92.30
2018-02-15T06:56:01.264Z,91.40
2018-02-15T06:58:28.206Z,90.40
2018-02-15T07:00:54.467Z,90.40
2018-02-15T07:03:21.452Z,90.90
2018-02-15T07:05:47.676Z,91.00
2018-02-15T07:08:13.907Z,91.50
2018-02-15T07:10:40.887Z,90.90
2018-02-15T07:13:07.125Z,90.90
2018-02-15T07:15:33.345Z,90.40
2018-02-15T07:18:00.839Z,90.20
2018-02-15T07:20:27.967Z,90.20
2018-02-15T07:22:54.418Z,90.20
2018-02-15T07:25:21.353Z,89.90
2018-02-15T07:27:47.589Z,89.80
2018-02-15T07:30:13.809Z,89.80
2018-02-15T07:32:40.026Z,89.50
2018-02-15T07:35:06.258Z,88.90
2018-02-15T07:37:32.475Z,88.50
2018-02-15T07:39:59.439Z,87.80
2018-02-15T07:42:25.659Z,87.80
2018-02-15T07:44:51.880Z,87.20
2018-02-15T07:47:18.138Z,87.10
2018-02-15T07:49:44.383Z,87.10
2018-02-15T07:52:11.398Z,87.10
2018-02-15T07:54:37.634Z,87.10
2018-02-15T07:57:03.870Z,87.00
2018-02-15T07:59:30.130Z,86.40
2018-02-15T08:01:56.345Z,85.90
2018-02-15T08:04:22.581Z,85.80
2018-02-15T08:06:48.788Z,85.60
2018-02-15T08:09:15.103Z,85.50
2018-02-15T08:11:41.323Z,85.40
2018-02-15T08:14:07.540Z,92.80
2018-02-15T08:16:33.763Z,95.30
2018-02-15T08:18:59.996Z,94.80
2018-02-15T08:21:26.944Z,88.60
2018-02-15T08:23:53.204Z,88.60
2018-02-15T08:26:19.468Z,82.40
2018-02-15T08:28:45.716Z,80.70
2018-02-15T08:31:11.948Z,80.50
2018-02-15T08:33:38.937Z,80.00
2018-02-15T08:36:05.178Z,79.90
2018-02-15T08:38:31.398Z,79.90
2018-02-15T08:40:57.630Z,79.70
2018-02-15T08:43:23.855Z,79.70
2018-02-15T08:45:50.087Z,80.40
2018-02-15T08:48:16.316Z,80.30
2018-02-15T08:50:43.276Z,78.80
2018-02-15T08:53:10.273Z,78.50
2018-02-15T08:55:36.470Z,78.50
2018-02-15T08:58:03.466Z,78.10
2018-02-15T09:00:29.684Z,78.00
2018-02-15T09:02:55.910Z,77.70
2018-02-15T09:05:22.896Z,77.90
2018-02-15T09:07:49.090Z,77.90
2018-02-15T09:10:15.324Z,77.50
2018-02-15T09:12:41.561Z,76.20
2018-02-15T09:15:07.802Z,75.70
2018-02-15T09:17:34.021Z,75.20
2018-02-15T09:20:00.272Z,75.30
2018-02-15T09:22:26.494Z,75.10
2018-02-15T09:24:52.707Z,74.30
2018-02-15T09:27:18.912Z,74.60
2018-02-15T09:29:45.162Z,75.10
2018-02-15T09:32:12.168Z,74.90
2018-02-15T09:34:38.392Z,74.30
2018-02-15T09:37:05.175Z,73.30
2018-02-15T09:39:31.397Z,73.10
2018-02-15T09:41:57.623Z,72.50
2018-02-15T09:44:23.858Z,72.70
2018-02-15T09:46:50.110Z,72.80
2018-02-15T09:49:16.354Z,72.80
2018-02-15T09:51:42.581Z,72.20
2018-02-15T09:54:08.812Z,71.10
2018-02-15T09:56:35.023Z,70.30
2018-02-15T09:59:01.258Z,69.80
2018-02-15T10:01:27.495Z,69.40
2018-02-15T10:03:53.743Z,69.90
2018-02-15T10:06:19.999Z,69.70
2018-02-15T10:08:46.952Z,68.10
2018-02-15T10:11:13.922Z,67.50
2018-02-15T10:13:40.899Z,66.80
2018-02-15T10:16:07.131Z,66.60
2018-02-15T10:18:33.357Z,66.80
2018-02-15T10:20:59.633Z,65.50
2018-02-15T10:23:25.881Z,65.40
2018-02-15T10:25:52.099Z,65.40
2018-02-15T10:28:18.303Z,64.90
2018-02-15T10:30:44.539Z,64.20
2018-02-15T10:33:10.783Z,64.30
2018-02-15T10:35:37.002Z,63.50
2018-02-15T10:38:03.249Z,63.30
2018-02-15T10:40:29.504Z,63.20
2018-02-15T10:42:55.741Z,62.50
2018-02-15T10:45:21.955Z,62.40
2018-02-15T10:47:48.190Z,62.00
2018-02-15T10:50:14.408Z,62.00
2018-02-15T10:52:40.626Z,62.00
2018-02-15T10:55:07.594Z,61.80
2018-02-15T10:57:33.840Z,61.70
2018-02-15T11:00:00.106Z,61.60
2018-02-15T11:02:26.359Z,61.10
2018-02-15T11:04:58.613Z,61.50
2018-02-15T11:07:24.818Z,61.70
2018-02-15T11:09:51.784Z,61.40
2018-02-15T11:12:18.024Z,61.40
2018-02-15T11:14:44.995Z,61.40
2018-02-15T11:17:11.225Z,61.40
2018-02-15T11:19:38.280Z,61.50
2018-02-15T11:22:05.295Z,61.50
2018-02-15T11:24:32.265Z,61.60
2018-02-15T11:26:58.516Z,61.50
2018-02-15T11:29:24.724Z,61.40
2018-02-15T11:31:51.021Z,61.20
2018-02-15T11:34:17.983Z,60.60
2018-02-15T11:36:44.220Z,60.60
2018-02-15T11:39:11.172Z,60.00
2018-02-15T11:41:38.120Z,60.10
2018-02-15T11:44:05.100Z,59.60
2018-02-15T11:46:31.296Z,59.60
2018-02-15T11:48:57.550Z,59.00
2018-02-15T11:51:23.828Z,58.60
2018-02-15T11:53:50.046Z,58.20
2018-02-15T11:56:17.056Z,57.60
2018-02-15T11:58:43.284Z,57.60
2018-02-15T12:01:09.539Z,57.70
2018-02-15T12:03:35.771Z,56.70
2018-02-15T12:06:02.008Z,56.80
2018-02-15T12:08:28.239Z,57.00
2018-02-15T12:10:54.504Z,56.80
2018-02-15T12:13:20.759Z,56.80
2018-02-15T12:15:46.993Z,55.80
2018-02-15T12:18:13.227Z,56.00
2018-02-15T12:20:39.453Z,55.90
2018-02-15T12:23:05.687Z,56.00
2018-02-15T12:25:31.950Z,56.10
2018-02-15T12:27:58.156Z,56.10
2018-02-15T12:30:24.397Z,56.30
2018-02-15T12:32:50.620Z,56.20
2018-02-15T12:35:16.839Z,55.10
2018-02-15T12:37:43.049Z,54.50
2018-02-15T12:40:09.275Z,54.90
2018-02-15T12:42:35.491Z,55.00
2018-02-15T12:45:01.722Z,55.30
2018-02-15T12:47:27.993Z,55.20
2018-02-15T12:49:54.230Z,55.30
2018-02-15T12:52:20.456Z,55.10
2018-02-15T12:54:46.668Z,55.00
2018-02-15T12:57:13.663Z,55.20
2018-02-15T12:59:39.874Z,55.20
2018-02-15T13:02:06.845Z,54.90
2018-02-15T13:04:33.082Z,54.90
2018-02-15T13:06:59.339Z,54.60
2018-02-15T13:09:25.648Z,54.50
2018-02-15T13:11:52.614Z,55.30
2018-02-15T13:14:19.640Z,55.40
2018-02-15T13:16:53.876Z,55.30
2018-02-15T13:19:33.778Z,55.80
2018-02-15T13:22:00.030Z,55.70
2018-02-15T13:24:26.256Z,56.00
2018-02-15T13:26:52.478Z,56.20
2018-02-15T13:29:19.459Z,56.70
2018-02-15T13:31:45.736Z,56.60
2018-02-15T13:34:11.962Z,56.50
2018-02-15T13:36:38.223Z,56.40
2018-02-15T13:39:05.189Z,56.60
2018-02-15T13:41:31.440Z,56.70
2018-02-15T13:43:57.705Z,56.20
2018-02-15T13:46:24.708Z,57.20
2018-02-15T13:48:50.942Z,57.20
2018-02-15T13:51:17.177Z,57.30
2018-02-15T13:53:43.434Z,57.10
2018-02-15T13:56:09.654Z,56.70
2018-02-15T13:58:35.846Z,56.40
2018-02-15T14:01:02.102Z,56.10
2018-02-15T14:03:29.085Z,56.50
2018-02-15T14:05:55.322Z,56.30
2018-02-15T14:08:21.581Z,56.40
2018-02-15T14:10:47.822Z,56.20
2018-02-15T14:13:14.058Z,56.20
2018-02-15T14:15:40.275Z,56.50
2018-02-15T14:18:06.530Z,56.30
2018-02-15T14:20:32.764Z,56.60
2018-02-15T14:22:59.012Z,56.50
2018-02-15T14:25:25.232Z,56.30
2018-02-15T14:27:52.225Z,56.30
2018-02-15T14:30:18.489Z,56.30
2018-02-15T14:32:44.711Z,56.60
2018-02-15T14:35:10.947Z,57.20
2018-02-15T14:37:37.172Z,57.60
2018-02-15T14:40:03.431Z,57.50
2018-02-15T14:42:29.645Z,57.70
2018-02-15T14:44:55.878Z,57.90
2018-02-15T14:47:22.111Z,57.60
2018-02-15T14:49:49.099Z,58.10
2018-02-15T14:52:15.350Z,58.10
2018-02-15T14:54:41.585Z,58.60
2018-02-15T14:57:07.855Z,59.10
2018-02-15T14:59:34.109Z,58.90
2018-02-15T15:02:00.334Z,59.10
2018-02-15T15:04:26.594Z,59.20
2018-02-15T15:06:53.556Z,59.90
2018-02-15T15:09:20.561Z,61.10
2018-02-15T15:11:46.840Z,60.40
2018-02-15T15:14:13.108Z,61.40
2018-02-15T15:16:39.343Z,62.10
2018-02-15T15:19:06.321Z,63.80
2018-02-15T15:21:32.586Z,63.70
2018-02-15T15:23:59.528Z,64.20
2018-02-15T15:26:25.783Z,65.10
2018-02-15T15:28:52.021Z,66.40
2018-02-15T15:31:18.298Z,68.10
2018-02-15T15:33:44.537Z,69.40
2018-02-15T15:36:10.788Z,70.80
2018-02-15T15:38:37.052Z,72.30
2018-02-15T15:41:04.027Z,75.80
2018-02-15T15:43:30.288Z,75.80
2018-02-15T15:45:56.550Z,78.40
2018-02-15T15:48:22.866Z,79.40
2018-02-15T15:50:49.118Z,80.40
2018-02-15T15:53:16.092Z,82.20
2018-02-15T15:55:42.358Z,82.20
2018-02-15T15:58:08.609Z,82.70
2018-02-15T16:00:35.614Z,85.50
2018-02-15T16:03:01.851Z,85.50
2018-02-15T16:05:28.103Z,86.60
2018-02-15T16:07:54.342Z,88.00
2018-02-15T16:10:20.566Z,88.90
2018-02-15T16:12:46.799Z,89.80
2018-02-15T16:15:13.476Z,90.30
2018-02-15T16:17:39.716Z,90.70
2018-02-15T16:20:05.970Z,91.00
2018-02-15T16:22:32.224Z,91.30
2018-02-15T16:24:58.482Z,91.70
2018-02-15T16:27:25.458Z,92.40
2018-02-15T16:29:51.704Z,92.40
2018-02-15T16:32:17.936Z,92.70
2018-02-15T16:34:44.200Z,93.10
2018-02-15T16:37:10.445Z,93.40
2018-02-15T16:39:36.677Z,93.70
2018-02-15T16:42:02.912Z,94.00
2018-02-15T16:44:29.152Z,94.30
2018-02-15T16:46:55.450Z,94.70
2018-02-15T16:49:28.594Z,95.00
2018-02-15T16:51:54.833Z,95.30
2018-02-15T16:54:21.084Z,95.60
2018-02-15T16:56:47.382Z,95.90
2018-02-15T16:59:13.587Z,96.20
2018-02-15T17:01:39.818Z,96.40
2018-02-15T17:04:06.072Z,96.60
2018-02-15T17:06:32.301Z,96.70
2018-02-15T17:08:58.547Z,96.90
2018-02-15T17:11:24.811Z,97.10
2018-02-15T17:13:51.027Z,97.20
2018-02-15T17:16:17.312Z,97.40
2018-02-15T17:18:43.561Z,97.60
2018-02-15T17:21:10.553Z,97.90
2018-02-15T17:23:36.772Z,97.90
2018-02-15T17:26:03.008Z,97.90
2018-02-15T17:28:29.280Z,98.00
2018-02-15T17:30:55.520Z,98.00
2018-02-15T17:33:21.808Z,97.90
2018-02-15T17:35:48.061Z,97.90
2018-02-15T17:38:14.309Z,97.70
2018-02-15T17:40:40.533Z,97.90
2018-02-15T17:43:07.853Z,99.90
2018-02-15T17:45:34.106Z,99.90
2018-02-15T17:48:00.338Z,99.90
2018-02-15T17:50:26.591Z,99.90
2018-02-15T17:52:52.834Z,99.70
2018-02-15T17:55:19.133Z,97.10
2018-02-15T17:57:45.379Z,95.90
2018-02-15T18:00:11.633Z,95.70
2018-02-15T18:02:37.906Z,95.80
2018-02-15T18:05:04.171Z,96.00
2018-02-15T18:07:31.231Z,96.50
2018-02-15T18:09:58.290Z,96.80
2018-02-15T18:12:24.530Z,96.70
2018-02-15T18:14:51.547Z,97.10
2018-02-15T18:17:17.794Z,97.10
2018-02-15T18:19:44.087Z,97.30
2018-02-15T18:22:10.349Z,97.40
2018-02-15T18:24:36.624Z,97.50
2018-02-15T18:27:02.905Z,97.60
2018-02-15T18:29:29.208Z,97.70
2018-02-15T18:31:55.534Z,97.80
2018-02-15T18:34:21.848Z,97.90
2018-02-15T18:36:48.150Z,97.90
2018-02-15T18:39:14.418Z,98.00
2018-02-15T18:41:41.480Z,98.20
2018-02-15T18:44:08.536Z,98.30
2018-02-15T18:46:34.836Z,98.30
2018-02-15T18:49:01.144Z,98.30
2018-02-15T18:51:27.508Z,98.40
2018-02-15T18:53:54.075Z,98.50
2018-02-15T18:56:20.386Z,98.70
2018-02-15T18:58:46.732Z,98.70
2018-02-15T19:01:13.159Z,98.80
2018-02-15T19:03:39.452Z,98.80
2018-02-15T19:06:05.785Z,98.90
2018-02-15T19:08:32.083Z,99.20
2018-02-15T19:10:58.396Z,99.00
2018-02-15T19:13:25.460Z,99.10
2018-02-15T19:15:52.523Z,99.10
2018-02-15T19:18:18.830Z,99.10
2018-02-15T19:20:45.159Z,99.10
2018-02-15T19:23:11.446Z,99.10
2018-02-15T19:25:38.467Z,99.30
2018-02-15T19:28:04.821Z,99.30
2018-02-15T19:30:31.135Z,99.40
2018-02-15T19:32:57.845Z,99.50
2018-02-15T19:35:24.164Z,99.60
2018-02-15T19:37:50.506Z,99.70
2018-02-15T19:40:16.827Z,99.80
2018-02-15T19:42:43.130Z,99.90
2018-02-15T19:45:09.446Z,99.90
2018-02-15T19:47:35.745Z,99.90
2018-02-15T19:50:02.066Z,99.90
2018-02-15T19:52:28.334Z,99.90
2018-02-15T19:54:54.659Z,99.90
2018-02-15T19:57:21.961Z,99.90
2018-02-15T19:59:48.249Z,99.90
2018-02-15T20:02:15.357Z,99.90
2018-02-15T20:04:41.683Z,99.90
2018-02-15T20:07:08.034Z,99.90
2018-02-15T20:09:34.376Z,99.90
2018-02-15T20:12:00.692Z,99.90
2018-02-15T20:14:26.991Z,99.90
2018-02-15T20:16:53.318Z,99.90
2018-02-15T20:19:19.602Z,99.90
2018-02-15T20:21:45.923Z,99.90
2018-02-15T20:24:13.346Z,99.90
2018-02-15T20:26:45.748Z,99.90
2018-02-15T20:29:12.051Z,99.90
2018-02-15T20:31:39.102Z,99.90
2018-02-15T20:34:06.304Z,99.90
2018-02-15T20:36:32.604Z,99.90
2018-02-15T20:39:05.200Z,99.90
2018-02-15T20:41:31.501Z,99.90
2018-02-15T20:43:57.822Z,99.90
2018-02-15T20:46:24.088Z,99.90
2018-02-15T20:48:50.414Z,99.90
2018-02-15T20:51:22.825Z,99.90
2018-02-15T20:53:55.181Z,99.90
2018-02-15T20:56:21.478Z,99.90
2018-02-15T20:58:47.801Z,99.90
2018-02-15T21:01:14.857Z,99.90
2018-02-15T21:03:41.896Z,99.90
2018-02-15T21:06:08.247Z,99.90
2018-02-15T21:08:34.524Z,99.90
2018-02-15T21:11:00.881Z,99.90
2018-02-15T21:13:27.203Z,99.90
2018-02-15T21:15:53.544Z,99.90
2018-02-15T21:18:20.612Z,99.90
2018-02-15T21:20:46.857Z,99.90
2018-02-15T21:23:13.165Z,99.90
2018-02-15T21:25:39.447Z,99.90
2018-02-15T21:28:05.773Z,99.90
2018-02-15T21:30:32.040Z,99.90
2018-02-15T21:32:58.283Z,99.90
2018-02-15T21:35:24.562Z,99.90
2018-02-15T21:37:50.815Z,99.90
2018-02-15T21:40:17.059Z,99.90
2018-02-15T21:42:43.353Z,99.90
2018-02-15T21:45:09.611Z,99.90
2018-02-15T21:47:35.843Z,99.90
2018-02-15T21:50:02.135Z,99.90
2018-02-15T21:52:29.177Z,99.90
2018-02-15T21:54:55.421Z,99.90
2018-02-15T21:57:22.451Z,99.90
2018-02-15T21:59:48.704Z,99.90
2018-02-15T22:02:14.932Z,99.90
2018-02-15T22:04:41.196Z,99.90
2018-02-15T22:07:07.454Z,99.90
2018-02-15T22:09:34.485Z,99.90
2018-02-15T22:12:00.708Z,99.90
2018-02-15T22:14:26.933Z,99.90
2018-02-15T22:16:53.183Z,99.90
2018-02-15T22:19:19.410Z,99.90
2018-02-15T22:21:46.412Z,99.90
2018-02-15T22:24:12.652Z,99.90
2018-02-15T22:26:38.952Z,99.90
2018-02-15T22:29:05.204Z,99.90
2018-02-15T22:31:32.176Z,99.90
2018-02-15T22:33:58.417Z,99.90
2018-02-15T22:36:24.644Z,99.90
2018-02-15T22:38:50.886Z,99.90
2018-02-15T22:41:17.144Z,99.90
2018-02-15T22:43:43.710Z,99.90
2018-02-15T22:46:09.954Z,99.90
2018-02-15T22:48:36.194Z,99.90
2018-02-15T22:51:02.450Z,99.90
2018-02-15T22:53:28.694Z,99.90
2018-02-15T22:55:55.701Z,99.90
2018-02-15T22:58:21.936Z,99.90
2018-02-15T23:00:48.184Z,99.90
2018-02-15T23:03:14.436Z,99.90
2018-02-15T23:05:40.673Z,99.90
2018-02-15T23:08:06.948Z,99.90
2018-02-15T23:10:35.123Z,99.90
2018-02-15T23:13:01.416Z,99.90
2018-02-15T23:15:27.632Z,99.90
2018-02-15T23:17:53.871Z,99.90
2018-02-15T23:20:20.102Z,99.90
2018-02-15T23:22:47.062Z,99.90
2018-02-15T23:25:13.310Z,99.90
2018-02-15T23:27:40.307Z,99.90
2018-02-15T23:30:06.546Z,99.90
2018-02-15T23:32:32.779Z,99.90
2018-02-15T23:34:59.032Z,99.90
2018-02-15T23:37:25.248Z,99.90
2018-02-15T23:39:51.503Z,99.90
2018-02-15T23:42:17.739Z,99.90
2018-02-15T23:44:43.991Z,99.90
2018-02-15T23:47:10.230Z,99.90
2018-02-15T23:49:36.445Z,99.90
2018-02-15T23:52:02.669Z,99.90
2018-02-15T23:54:28.888Z,99.90
2018-02-15T23:56:55.897Z,99.90
2018-02-15T23:59:22.148Z,99.90
